LOWW 210220Z 35005KT 9999 FEW038 11/07 Q1024 NOSIG LOWW 210150Z 34004KT 9999 FEW038 11/08 Q1024 NOSIG LOWW 210120Z 32004KT 9999 FEW038 11/07 Q1024 NOSIG LOWW 210050Z 32004KT 9999 FEW038 11/07 Q1024 NOSIG LOWW 210020Z 35005KT 9999 FEW038 11/07 Q1024 NOSIG LOWW 202350Z 33004KT 9999 FEW038 11/07 Q1023 NOSIG LOWW 202320Z 01003KT 9999 FEW038 11/07 Q1023 NOSIG LOWW 202250Z 34005KT 9999 FEW034 11/07 Q1023 NOSIG LOWW 202220Z 35003KT 9999 FEW038 11/07 Q1023 NOSIG LOWW 202150Z 32005KT 9999 FEW040 12/06 Q1023 NOSIG LOWW 202120Z 33004KT 9999 FEW050 11/06 Q1023 NOSIG LOWW 202050Z 34004KT 9999 FEW050 12/05 Q1023 NOSIG LOWW 202020Z 32005KT 9999 FEW050 12/05 Q1023 NOSIG LOWW 201950Z 32004KT 9999 FEW050 12/05 Q1022 NOSIG LOWW 201920Z 34005KT 9999 FEW048 12/05 Q1022 NOSIG LOWW 201850Z 33006KT 9999 FEW048 13/05 Q1022 NOSIG LOWW 201820Z 36004KT 9999 FEW048 13/07 Q1022 NOSIG LOWW 201750Z 04004KT 360V060 9999 FEW048 13/08 Q1021 NOSIG LOWW 201720Z 32006KT 9999 FEW045 13/07 Q1021 NOSIG LOWW 201650Z 31007KT 9999 FEW040 14/06 Q1020 NOSIG LOWW 201620Z 31009KT 9999 FEW040 14/06 Q1020 NOSIG LOWW 201550Z 31008KT 9999 FEW040 15/06 Q1020 NOSIG LOWW 201520Z 31007KT 9999 FEW040 15/06 Q1020 NOSIG LOWW 201450Z 30009KT 9999 FEW040 15/06 Q1019 NOSIG LOWW 201420Z 31009KT 9999 FEW040 15/07 Q1019 NOSIG LOWW 201350Z 31007KT 9999 FEW040 15/06 Q1019 NOSIG LOWW 201320Z 33007KT 9999 FEW040 15/06 Q1019 NOSIG LOWW 201250Z 34008KT 9999 FEW040 15/06 Q1019 NOSIG LOWW 201220Z 33008KT 9999 FEW036 15/06 Q1019 NOSIG LOWW 201150Z 01009KT 320V040 9999 SCT036 16/07 Q1019 NOSIG LOWW 201120Z 35009KT 310V020 9999 SCT036 16/06 Q1018 NOSIG LOWW 201050Z 36010KT 310V040 9999 SCT036 15/07 Q1019 NOSIG LOWW 201020Z 34010KT 9999 FEW030 15/08 Q1019 NOSIG LOWW 200950Z 35009KT 9999 FEW030 14/07 Q1019 NOSIG LOWW 200920Z 35009KT 9999 FEW030 15/08 Q1019 NOSIG LOWW 200850Z 34010KT 9999 FEW030 14/07 Q1018 NOSIG LOWW 200820Z 33009KT 9999 FEW030 13/08 Q1018 NOSIG LOWW 200750Z 34010KT 9999 FEW034 12/07 Q1018 NOSIG LOWW 200720Z 34010KT 9999 FEW034 BKN050 12/07 Q1018 NOSIG LOWW 200650Z 34008KT 9999 FEW034 BKN050 11/07 Q1018 NOSIG LOWW 200620Z 33008KT 9999 BKN050 11/07 Q1017 NOSIG LOWW 200550Z 34009KT 9999 BKN050 11/07 Q1017 NOSIG LOWW 200520Z 33007KT 9999 BKN050 11/07 Q1017 NOSIG LOWW 200450Z 33008KT 9999 BKN050 10/07 Q1017 NOSIG LOWW 200420Z 34008KT 9999 BKN048 10/07 Q1016 NOSIG LOWW 200350Z 34008KT 9999 BKN046 10/07 Q1016 NOSIG LOWW 200320Z 33007KT 9999 BKN045 10/06 Q1016 NOSIG LOWW 200250Z 34009KT 9999 BKN045 09/06 Q1015 NOSIG LOWW 200220Z 33009KT 9999 BKN044 09/06 Q1015 NOSIG LOWW 200150Z 34009KT 9999 SCT044 09/06 Q1015 NOSIG LOWW 200120Z 34008KT 9999 SCT043 09/06 Q1015 NOSIG LOWW 200050Z 34009KT 9999 SCT043 09/06 Q1015 NOSIG LOWW 200020Z 35007KT 9999 BKN043 08/06 Q1016 NOSIG LOWW 192350Z 36007KT 9999 BKN043 09/06 Q1016 NOSIG LOWW 192320Z 36008KT 9999 OVC043 10/06 Q1016 NOSIG LOWW 192250Z 35008KT 9999 OVC043 10/06 Q1016 NOSIG LOWW 192220Z 34006KT 9999 OVC043 11/07 Q1016 NOSIG LOWW 192150Z 35006KT 9999 OVC044 11/07 Q1016 NOSIG LOWW 192120Z 35005KT 9999 OVC042 11/07 Q1016 NOSIG LOWW 192050Z 36007KT 9999 OVC042 11/07 Q1016 NOSIG LOWW 192020Z 36007KT 9999 OVC042 11/07 Q1015 NOSIG LOWW 191950Z 01007KT 9999 OVC042 12/06 Q1015 NOSIG LOWW 191920Z 02007KT 9999 BKN042 12/07 Q1015 NOSIG LOWW 191850Z 01008KT 9999 BKN042 12/07 Q1015 NOSIG LOWW 191820Z 02010KT 9999 BKN043 13/07 Q1015 NOSIG LOWW 191750Z 02006KT 350V050 9999 BKN040 13/07 Q1014 NOSIG LOWW 191720Z 02005KT 350V060 9999 BKN038 14/07 Q1014 NOSIG LOWW 191650Z 02006KT 350V050 9999 BKN038 14/07 Q1014 NOSIG LOWW 191620Z 02006KT 360V060 9999 BKN037 14/07 Q1014 NOSIG LOWW 191550Z 02007KT 360V060 9999 FEW020 BKN038 15/07 Q1014 NOSIG LOWW 191520Z 01008KT 9999 FEW020 BKN038 15/08 Q1014 NOSIG LOWW 191450Z 02009KT 9999 FEW020 BKN038 15/08 Q1014 NOSIG

METAR Messwerte

Zurück zur Übersicht

Ort
m ü. NN
Zeit Temperatur Taupunkt Rel.
Luftfeuchte
Luftdruck:
Altimeter
NN
Station
Wind in Beaufort
(Knoten)
Sichtweite
(Meter)
Wolken
(Meter über Grund)
Wettererscheinung
Wien/Schwechat
190
Di 21.09. 04:2011776 %1024
1024
1001
N 2 (5)>= 10000Leicht bewölkt (1200) 
Wien/Schwechat
190
Di 21.09. 03:5011882 %1024
1024
1001
NNW 2 (4)>= 10000Leicht bewölkt (1200) 
Wien/Schwechat
190
Di 21.09. 03:2011776 %1024
1024
1001
NW 2 (4)>= 10000Leicht bewölkt (1200) 
Wien/Schwechat
190
Di 21.09. 02:5011776 %1024
1024
1001
NW 2 (4)>= 10000Leicht bewölkt (1200) 
Wien/Schwechat
190
Di 21.09. 02:2011776 %1024
1024
1001
N 2 (5)>= 10000Leicht bewölkt (1200) 
Wien/Schwechat
190
Di 21.09. 01:5011776 %1023
1023
1000
NNW 2 (4)>= 10000Leicht bewölkt (1200) 
Wien/Schwechat
190
Di 21.09. 01:2011776 %1023
1023
1000
N 2 (3)>= 10000Leicht bewölkt (1200) 
Wien/Schwechat
190
Di 21.09. 00:5011776 %1023
1023
1000
NNW 2 (5)>= 10000Leicht bewölkt (1000) 
Wien/Schwechat
190
Di 21.09. 00:2011776 %1023
1023
1000
N 2 (3)>= 10000Leicht bewölkt (1200) 
Wien/Schwechat
190
Mo 20.09. 23:5012667 %1023
1023
1000
NW 2 (5)>= 10000Leicht bewölkt (1200) 
Wien/Schwechat
190
Mo 20.09. 23:2011671 %1023
1023
1000
NNW 2 (4)>= 10000Leicht bewölkt (1500) 
Wien/Schwechat
190
Mo 20.09. 22:5012562 %1023
1023
1000
NNW 2 (4)>= 10000Leicht bewölkt (1500) 
Wien/Schwechat
190
Mo 20.09. 22:2012562 %1023
1023
1000
NW 2 (5)>= 10000Leicht bewölkt (1500) 
Wien/Schwechat
190
Mo 20.09. 21:5012562 %1022
1022
999
NW 2 (4)>= 10000Leicht bewölkt (1500) 
Wien/Schwechat
190
Mo 20.09. 21:2012562 %1022
1022
999
NNW 2 (5)>= 10000Leicht bewölkt (1500) 
Wien/Schwechat
190
Mo 20.09. 20:5013558 %1022
1022
999
NNW 2 (6)>= 10000Leicht bewölkt (1500) 
Wien/Schwechat
190
Mo 20.09. 20:2013767 %1022
1022
999
N 2 (4)>= 10000Leicht bewölkt (1500) 
Wien/Schwechat
190
Mo 20.09. 19:5013872 %1021
1021
998
NO 2 (4)
N - ONO
>= 10000Leicht bewölkt (1500) 
Wien/Schwechat
190
Mo 20.09. 19:2013767 %1021
1021
998
NW 2 (6)>= 10000Leicht bewölkt (1400) 
Wien/Schwechat
190
Mo 20.09. 18:5014658 %1020
1020
997
NW 3 (7)>= 10000Leicht bewölkt (1200) 
Wien/Schwechat
190
Mo 20.09. 18:2014658 %1020
1020
997
NW 3 (9)>= 10000Leicht bewölkt (1200) 
Wien/Schwechat
190
Mo 20.09. 17:5015655 %1020
1020
997
NW 3 (8)>= 10000Leicht bewölkt (1200) 
Wien/Schwechat
190
Mo 20.09. 17:2015655 %1020
1020
997
NW 3 (7)>= 10000Leicht bewölkt (1200) 
Wien/Schwechat
190
Mo 20.09. 16:5015655 %1019
1019
996
WNW 3 (9)>= 10000Leicht bewölkt (1200) 
Wien/Schwechat
190
Mo 20.09. 16:2015759 %1019
1019
996
NW 3 (9)>= 10000Leicht bewölkt (1200) 
Wien/Schwechat
190
Mo 20.09. 15:5015655 %1019
1019
996
NW 3 (7)>= 10000Leicht bewölkt (1200) 
Wien/Schwechat
190
Mo 20.09. 15:2015655 %1019
1019
996
NNW 3 (7)>= 10000Leicht bewölkt (1200) 
Wien/Schwechat
190
Mo 20.09. 14:5015655 %1019
1019
996
NNW 3 (8)>= 10000Leicht bewölkt (1200) 
Wien/Schwechat
190
Mo 20.09. 14:2015655 %1019
1019
996
NNW 3 (8)>= 10000Leicht bewölkt (1100) 
Wien/Schwechat
190
Mo 20.09. 13:5016755 %1019
1019
996
N 3 (9)
NW - NO
>= 10000Wolkig (1100) 
Wien/Schwechat
190
Mo 20.09. 13:2016651 %1018
1018
995
N 3 (9)
NW - NNO
>= 10000Wolkig (1100) 
Wien/Schwechat
190
Mo 20.09. 12:5015759 %1019
1019
996
N 3 (10)
NW - NO
>= 10000Wolkig (1100) 
Wien/Schwechat
190
Mo 20.09. 12:2015863 %1019
1019
996
NNW 3 (10)>= 10000Leicht bewölkt (910) 
Wien/Schwechat
190
Mo 20.09. 11:5014763 %1019
1019
996
N 3 (9)>= 10000Leicht bewölkt (910) 
Wien/Schwechat
190
Mo 20.09. 11:2015863 %1019
1019
996
N 3 (9)>= 10000Leicht bewölkt (910) 
Wien/Schwechat
190
Mo 20.09. 10:5014763 %1018
1018
995
NNW 3 (10)>= 10000Leicht bewölkt (910) 
Wien/Schwechat
190
Mo 20.09. 10:2013872 %1018
1018
995
NNW 3 (9)>= 10000Leicht bewölkt (910) 
Wien/Schwechat
190
Mo 20.09. 09:5012771 %1018
1018
995
NNW 3 (10)>= 10000Leicht bewölkt (1000) 
Wien/Schwechat
190
Mo 20.09. 09:2012771 %1018
1018
995
NNW 3 (10)>= 10000Stark bewölkt (1500)
Leicht bewölkt (1000)
 
Wien/Schwechat
190
Mo 20.09. 08:5011776 %1018
1018
995
NNW 3 (8)>= 10000Stark bewölkt (1500)
Leicht bewölkt (1000)
 
Wien/Schwechat
190
Mo 20.09. 08:2011776 %1017
1017
994
NNW 3 (8)>= 10000Stark bewölkt (1500) 
Wien/Schwechat
190
Mo 20.09. 07:5011776 %1017
1017
994
NNW 3 (9)>= 10000Stark bewölkt (1500) 
Wien/Schwechat
190
Mo 20.09. 07:2011776 %1017
1017
994
NNW 3 (7)>= 10000Stark bewölkt (1500) 
Wien/Schwechat
190
Mo 20.09. 06:5010782 %1017
1017
994
NNW 3 (8)>= 10000Stark bewölkt (1500) 
Wien/Schwechat
190
Mo 20.09. 06:2010782 %1016
1016
993
NNW 3 (8)>= 10000Stark bewölkt (1500) 
Wien/Schwechat
190
Mo 20.09. 05:5010782 %1016
1016
993
NNW 3 (8)>= 10000Stark bewölkt (1400) 
Wien/Schwechat
190
Mo 20.09. 05:2010676 %1016
1016
993
NNW 3 (7)>= 10000Stark bewölkt (1400) 
Wien/Schwechat
190
Mo 20.09. 04:509681 %1015
1016
992
NNW 3 (9)>= 10000Stark bewölkt (1400) 
Wien/Schwechat
190
Mo 20.09. 04:209681 %1015
1016
992
NNW 3 (9)>= 10000Stark bewölkt (1300) 
Wien/Schwechat
190
Mo 20.09. 03:509681 %1015
1016
992
NNW 3 (9)>= 10000Wolkig (1300) 
Wien/Schwechat
190
Mo 20.09. 03:209681 %1015
1016
992
NNW 3 (8)>= 10000Wolkig (1300) 
Wien/Schwechat
190
Mo 20.09. 02:509681 %1015
1016
992
NNW 3 (9)>= 10000Wolkig (1300) 
Wien/Schwechat
190
Mo 20.09. 02:208687 %1016
1017
993
N 3 (7)>= 10000Stark bewölkt (1300) 
Wien/Schwechat
190
Mo 20.09. 01:509681 %1016
1017
993
N 3 (7)>= 10000Stark bewölkt (1300) 
Wien/Schwechat
190
Mo 20.09. 01:2010676 %1016
1016
993
N 3 (8)>= 10000Bedeckt (1300) 
Wien/Schwechat
190
Mo 20.09. 00:5010676 %1016
1016
993
N 3 (8)>= 10000Bedeckt (1300) 
Wien/Schwechat
190
Mo 20.09. 00:2011776 %1016
1016
993
NNW 2 (6)>= 10000Bedeckt (1300) 
Wien/Schwechat
190
So 19.09. 23:5011776 %1016
1016
993
N 2 (6)>= 10000Bedeckt (1300) 
Wien/Schwechat
190
So 19.09. 23:2011776 %1016
1016
993
N 2 (5)>= 10000Bedeckt (1300) 
Wien/Schwechat
190
So 19.09. 22:5011776 %1016
1016
993
N 3 (7)>= 10000Bedeckt (1300) 
Wien/Schwechat
190
So 19.09. 22:2011776 %1015
1015
992
N 3 (7)>= 10000Bedeckt (1300) 
Wien/Schwechat
190
So 19.09. 21:5012667 %1015
1015
992
N 3 (7)>= 10000Bedeckt (1300) 
Wien/Schwechat
190
So 19.09. 21:2012771 %1015
1015
992
NNO 3 (7)>= 10000Stark bewölkt (1300) 
Wien/Schwechat
190
So 19.09. 20:5012771 %1015
1015
992
N 3 (8)>= 10000Stark bewölkt (1300) 
Wien/Schwechat
190
So 19.09. 20:2013767 %1015
1015
992
NNO 3 (10)>= 10000Stark bewölkt (1300) 
Wien/Schwechat
190
So 19.09. 19:5013767 %1014
1014
991
NNO 2 (6)
N - NO
>= 10000Stark bewölkt (1200) 
Wien/Schwechat
190
So 19.09. 19:2014763 %1014
1014
991
NNO 2 (5)
N - ONO
>= 10000Stark bewölkt (1200) 
Wien/Schwechat
190
So 19.09. 18:5014763 %1014
1014
991
NNO 2 (6)
N - NO
>= 10000Stark bewölkt (1200) 
Wien/Schwechat
190
So 19.09. 18:2014763 %1014
1014
991
NNO 2 (6)
N - ONO
>= 10000Stark bewölkt (1100) 
Wien/Schwechat
190
So 19.09. 17:5015759 %1014
1014
991
NNO 3 (7)
N - ONO
>= 10000Stark bewölkt (1200)
Leicht bewölkt (610)
 
Wien/Schwechat
190
So 19.09. 17:2015863 %1014
1014
991
N 3 (8)>= 10000Stark bewölkt (1200)
Leicht bewölkt (610)
 
Wien/Schwechat
190
So 19.09. 16:5015863 %1014
1014
991
NNO 3 (9)>= 10000Stark bewölkt (1200)
Leicht bewölkt (610)
 

Altimeter: Einstellung am Altimeter (Höhenmesser), die Höhe 0 muss auf diesen Luftdruckwert zeigen, damit das Gerät die Stationshöhe richtig anzeigt.

NN: Luftdruck reduziert auf "Normal Null", auf Meereshöhe, dieser von der Temperatur abhängige Wert wird bisweilen unkorrekt einfach als "Luftdruck" bezeichnet. Eigentlich nur eine fiktive Größe, die es erlaubt, Stationen auf unterschiedlichen Höhen miteinander zu vergleichen.

Station: Realer Luftdruck an der Station.